Main page
METAR-TAF:

METAR-TAF

Airports :

Brownwood Regional Airport

Brownwood, Texas, United States

latitude: 31-48N, longitude: 098-57W, elevation: 1384 ft

Current weather observation

The report was made 26 minutes ago, at 21:35 UTC
Wind 15 mph from the North/Northwest with gusts up to 22 mph
Temperature 68°F
Humidity 35%
Pressure 29.88 in. Hg
Visibility: 10 miles
Few clouds at a height of 11000 ft

METAR: KBWD 092135Z AUTO 33013G19KT 10SM FEW110 20/04 A2988 RMK AO1

Time: 16:01 (22:01 UTC)


TAF: missing

Weather observations and forecasts of more than 4000 airports (METAR and TAF reports).

The available stations are represented by yellow and red dots on the map.

Hover mouse over dot to see the name of the station.

Then click to see weather observations and forecasts.

To change the map : click on the green buttons with a black cross to zoom in, on the green button with a dash to zoom out, or on the green arrows for adjacent maps.


METAR-TAF: